sensor_id;sensor_type;location;lat;lon;timestamp;temperature;humidity
3528;DHT22;1778;47.966;7.854;2023-06-19T00:00:59;20.30;99.90
3528;DHT22;1778;47.966;7.854;2023-06-19T00:02:01;20.30;99.90
3528;DHT22;1778;47.966;7.854;2023-06-19T00:03:02;20.40;99.90
3528;DHT22;1778;47.966;7.854;2023-06-19T00:04:04;20.40;99.90
3528;DHT22;1778;47.966;7.854;2023-06-19T00:05:06;20.40;99.90
3528;DHT22;1778;47.966;7.854;2023-06-19T00:06:09;20.50;99.90
3528;DHT22;1778;47.966;7.854;2023-06-19T00:07:10;20.40;99.90
3528;DHT22;1778;47.966;7.854;2023-06-19T00:08:12;20.50;99.90
3528;DHT22;1778;47.966;7.854;2023-06-19T00:09:13;20.40;99.90
3528;DHT22;1778;47.966;7.854;2023-06-19T00:10:15;20.40;99.90
3528;DHT22;1778;47.966;7.854;2023-06-19T00:11:18;20.40;99.90
3528;DHT22;1778;47.966;7.854;2023-06-19T00:12:19;20.40;99.90
3528;DHT22;1778;47.966;7.854;2023-06-19T00:13:20;20.40;99.90
3528;DHT22;1778;47.966;7.854;2023-06-19T00:14:22;20.50;99.90
3528;DHT22;1778;47.966;7.854;2023-06-19T00:15:24;20.50;99.90
3528;DHT22;1778;47.966;7.854;2023-06-19T00:16:26;20.50;99.90
3528;DHT22;1778;47.966;7.854;2023-06-19T00:17:28;20.50;99.90
3528;DHT22;1778;47.966;7.854;2023-06-19T00:18:30;20.50;99.90
3528;DHT22;1778;47.966;7.854;2023-06-19T00:19:33;20.50;99.90
3528;DHT22;1778;47.966;7.854;2023-06-19T00:20:41;20.50;99.90
3528;DHT22;1778;47.966;7.854;2023-06-19T00:21:43;20.50;99.90
3528;DHT22;1778;47.966;7.854;2023-06-19T00:22:45;20.50;99.90
3528;DHT22;1778;47.966;7.854;2023-06-19T00:23:53;20.50;99.90
3528;DHT22;1778;47.966;7.854;2023-06-19T00:24:54;20.60;99.90
3528;DHT22;1778;47.966;7.854;2023-06-19T00:25:56;20.60;99.90
3528;DHT22;1778;47.966;7.854;2023-06-19T00:26:58;20.60;99.90
3528;DHT22;1778;47.966;7.854;2023-06-19T00:28:04;20.60;99.90
3528;DHT22;1778;47.966;7.854;2023-06-19T00:29:05;20.60;99.90
3528;DHT22;1778;47.966;7.854;2023-06-19T00:30:08;20.70;99.90
3528;DHT22;1778;47.966;7.854;2023-06-19T00:31:11;20.70;99.90
3528;DHT22;1778;47.966;7.854;2023-06-19T00:32:15;20.60;99.90
3528;DHT22;1778;47.966;7.854;2023-06-19T00:33:17;20.60;99.90
3528;DHT22;1778;47.966;7.854;2023-06-19T00:34:18;20.60;99.90
3528;DHT22;1778;47.966;7.854;2023-06-19T00:35:20;20.70;99.90
3528;DHT22;1778;47.966;7.854;2023-06-19T00:36:24;20.70;99.90
3528;DHT22;1778;47.966;7.854;2023-06-19T00:37:28;20.70;99.90
3528;DHT22;1778;47.966;7.854;2023-06-19T00:38:33;20.70;99.90
3528;DHT22;1778;47.966;7.854;2023-06-19T00:39:35;20.70;99.90
3528;DHT22;1778;47.966;7.854;2023-06-19T00:40:36;20.70;99.90
3528;DHT22;1778;47.966;7.854;2023-06-19T00:41:38;20.70;99.90
3528;DHT22;1778;47.966;7.854;2023-06-19T00:42:41;20.70;99.90
3528;DHT22;1778;47.966;7.854;2023-06-19T00:43:42;20.70;99.90
3528;DHT22;1778;47.966;7.854;2023-06-19T00:44:44;20.70;99.90
3528;DHT22;1778;47.966;7.854;2023-06-19T00:45:46;20.70;99.90
3528;DHT22;1778;47.966;7.854;2023-06-19T00:46:51;20.70;99.90
3528;DHT22;1778;47.966;7.854;2023-06-19T00:48:00;20.70;99.90
3528;DHT22;1778;47.966;7.854;2023-06-19T00:49:02;20.70;99.90
3528;DHT22;1778;47.966;7.854;2023-06-19T00:50:05;20.70;99.90
3528;DHT22;1778;47.966;7.854;2023-06-19T00:51:07;20.70;99.90
3528;DHT22;1778;47.966;7.854;2023-06-19T00:52:09;20.70;99.90
3528;DHT22;1778;47.966;7.854;2023-06-19T00:53:11;20.70;99.90
3528;DHT22;1778;47.966;7.854;2023-06-19T00:54:13;20.70;99.90
3528;DHT22;1778;47.966;7.854;2023-06-19T00:55:16;20.70;99.90
3528;DHT22;1778;47.966;7.854;2023-06-19T00:56:19;20.70;99.90
3528;DHT22;1778;47.966;7.854;2023-06-19T00:57:20;20.70;99.90
3528;DHT22;1778;47.966;7.854;2023-06-19T00:58:23;20.70;99.90
3528;DHT22;1778;47.966;7.854;2023-06-19T00:59:26;20.70;99.90
3528;DHT22;1778;47.966;7.854;2023-06-19T01:00:27;20.70;99.90
3528;DHT22;1778;47.966;7.854;2023-06-19T01:01:31;20.70;99.90
3528;DHT22;1778;47.966;7.854;2023-06-19T01:02:33;20.70;99.90
3528;DHT22;1778;47.966;7.854;2023-06-19T01:03:34;20.70;99.90
3528;DHT22;1778;47.966;7.854;2023-06-19T01:04:38;20.70;99.90
3528;DHT22;1778;47.966;7.854;2023-06-19T01:05:41;20.70;99.90
3528;DHT22;1778;47.966;7.854;2023-06-19T01:06:56;20.60;99.90
3528;DHT22;1778;47.966;7.854;2023-06-19T01:08:42;20.60;99.90
3528;DHT22;1778;47.966;7.854;2023-06-19T01:09:48;20.60;99.90
3528;DHT22;1778;47.966;7.854;2023-06-19T01:10:58;20.60;99.90
3528;DHT22;1778;47.966;7.854;2023-06-19T01:12:13;20.60;99.90
3528;DHT22;1778;47.966;7.854;2023-06-19T01:13:21;20.60;99.90
3528;DHT22;1778;47.966;7.854;2023-06-19T01:14:42;20.70;99.90
3528;DHT22;1778;47.966;7.854;2023-06-19T01:15:46;20.70;99.90
3528;DHT22;1778;47.966;7.854;2023-06-19T01:16:49;20.70;99.90
3528;DHT22;1778;47.966;7.854;2023-06-19T01:17:51;20.70;99.90
3528;DHT22;1778;47.966;7.854;2023-06-19T01:18:56;20.60;99.90
3528;DHT22;1778;47.966;7.854;2023-06-19T01:19:59;20.60;99.90
3528;DHT22;1778;47.966;7.854;2023-06-19T01:21:14;20.60;99.90
3528;DHT22;1778;47.966;7.854;2023-06-19T01:22:27;20.60;99.90
3528;DHT22;1778;47.966;7.854;2023-06-19T01:23:32;20.60;99.90
3528;DHT22;1778;47.966;7.854;2023-06-19T01:24:34;20.60;99.90
3528;DHT22;1778;47.966;7.854;2023-06-19T01:25:36;20.60;99.90
3528;DHT22;1778;47.966;7.854;2023-06-19T01:26:39;20.60;99.90
3528;DHT22;1778;47.966;7.854;2023-06-19T01:27:42;20.60;99.90
3528;DHT22;1778;47.966;7.854;2023-06-19T01:28:44;20.50;99.90
3528;DHT22;1778;47.966;7.854;2023-06-19T01:29:47;20.50;99.90
3528;DHT22;1778;47.966;7.854;2023-06-19T01:30:49;20.50;99.90
3528;DHT22;1778;47.966;7.854;2023-06-19T01:32:04;20.50;99.90
3528;DHT22;1778;47.966;7.854;2023-06-19T01:33:15;20.50;99.90
3528;DHT22;1778;47.966;7.854;2023-06-19T01:34:19;20.40;99.90
3528;DHT22;1778;47.966;7.854;2023-06-19T01:35:25;20.40;99.90
3528;DHT22;1778;47.966;7.854;2023-06-19T01:36:29;20.40;99.90
3528;DHT22;1778;47.966;7.854;2023-06-19T01:37:38;20.30;99.90
3528;DHT22;1778;47.966;7.854;2023-06-19T01:38:47;20.20;99.90
3528;DHT22;1778;47.966;7.854;2023-06-19T01:39:50;20.10;99.90
3528;DHT22;1778;47.966;7.854;2023-06-19T01:40:55;20.00;99.90
3528;DHT22;1778;47.966;7.854;2023-06-19T01:41:57;20.00;99.90
3528;DHT22;1778;47.966;7.854;2023-06-19T01:43:00;20.00;99.90
3528;DHT22;1778;47.966;7.854;2023-06-19T01:44:05;19.90;99.90
3528;DHT22;1778;47.966;7.854;2023-06-19T01:45:08;19.90;99.90
3528;DHT22;1778;47.966;7.854;2023-06-19T01:46:10;19.90;99.90
3528;DHT22;1778;47.966;7.854;2023-06-19T01:47:11;19.80;99.90
3528;DHT22;1778;47.966;7.854;2023-06-19T01:48:16;19.80;99.90
3528;DHT22;1778;47.966;7.854;2023-06-19T01:49:18;19.80;99.90
3528;DHT22;1778;47.966;7.854;2023-06-19T01:50:21;19.60;99.90
3528;DHT22;1778;47.966;7.854;2023-06-19T01:51:25;19.60;99.90
3528;DHT22;1778;47.966;7.854;2023-06-19T01:52:26;19.50;99.90
3528;DHT22;1778;47.966;7.854;2023-06-19T01:53:29;19.40;99.90
3528;DHT22;1778;47.966;7.854;2023-06-19T01:54:31;19.50;99.90
3528;DHT22;1778;47.966;7.854;2023-06-19T01:55:32;19.50;99.90
3528;DHT22;1778;47.966;7.854;2023-06-19T01:56:35;19.40;99.90
3528;DHT22;1778;47.966;7.854;2023-06-19T01:57:36;19.30;99.90
3528;DHT22;1778;47.966;7.854;2023-06-19T01:58:38;19.30;99.90
3528;DHT22;1778;47.966;7.854;2023-06-19T01:59:40;19.20;99.90
3528;DHT22;1778;47.966;7.854;2023-06-19T02:00:41;19.20;99.90
3528;DHT22;1778;47.966;7.854;2023-06-19T02:01:43;19.10;99.90
3528;DHT22;1778;47.966;7.854;2023-06-19T02:02:44;19.10;99.90
3528;DHT22;1778;47.966;7.854;2023-06-19T02:03:47;19.10;99.90
3528;DHT22;1778;47.966;7.854;2023-06-19T02:04:48;19.10;99.90
3528;DHT22;1778;47.966;7.854;2023-06-19T02:05:50;19.10;99.90
3528;DHT22;1778;47.966;7.854;2023-06-19T02:06:53;19.00;99.90
3528;DHT22;1778;47.966;7.854;2023-06-19T02:07:55;19.00;99.90
3528;DHT22;1778;47.966;7.854;2023-06-19T02:08:57;19.00;99.90
3528;DHT22;1778;47.966;7.854;2023-06-19T02:09:58;19.00;99.90
3528;DHT22;1778;47.966;7.854;2023-06-19T02:11:00;19.00;99.90
3528;DHT22;1778;47.966;7.854;2023-06-19T02:12:02;18.90;99.90
3528;DHT22;1778;47.966;7.854;2023-06-19T02:13:03;18.90;99.90
3528;DHT22;1778;47.966;7.854;2023-06-19T02:14:05;18.90;99.90
3528;DHT22;1778;47.966;7.854;2023-06-19T02:15:07;18.90;99.90
3528;DHT22;1778;47.966;7.854;2023-06-19T02:16:09;18.80;99.90
3528;DHT22;1778;47.966;7.854;2023-06-19T02:17:11;18.80;99.90
3528;DHT22;1778;47.966;7.854;2023-06-19T02:18:13;18.80;99.90
3528;DHT22;1778;47.966;7.854;2023-06-19T02:19:16;18.80;99.90
3528;DHT22;1778;47.966;7.854;2023-06-19T02:20:17;18.70;99.90
3528;DHT22;1778;47.966;7.854;2023-06-19T02:21:19;18.70;99.90
3528;DHT22;1778;47.966;7.854;2023-06-19T02:22:20;18.70;99.90
3528;DHT22;1778;47.966;7.854;2023-06-19T02:23:22;18.70;99.90
3528;DHT22;1778;47.966;7.854;2023-06-19T02:24:24;18.60;99.90
3528;DHT22;1778;47.966;7.854;2023-06-19T02:25:26;18.70;99.90
3528;DHT22;1778;47.966;7.854;2023-06-19T02:26:27;18.70;99.90
3528;DHT22;1778;47.966;7.854;2023-06-19T02:27:30;18.70;99.90
3528;DHT22;1778;47.966;7.854;2023-06-19T02:28:33;18.60;99.90
3528;DHT22;1778;47.966;7.854;2023-06-19T02:29:34;18.60;99.90
3528;DHT22;1778;47.966;7.854;2023-06-19T02:30:36;18.60;99.90
3528;DHT22;1778;47.966;7.854;2023-06-19T02:31:38;18.60;99.90
3528;DHT22;1778;47.966;7.854;2023-06-19T02:32:40;18.60;99.90
3528;DHT22;1778;47.966;7.854;2023-06-19T02:33:42;18.60;99.90
3528;DHT22;1778;47.966;7.854;2023-06-19T02:34:45;18.60;99.90
3528;DHT22;1778;47.966;7.854;2023-06-19T02:35:46;18.60;99.90
3528;DHT22;1778;47.966;7.854;2023-06-19T02:36:48;18.60;99.90
3528;DHT22;1778;47.966;7.854;2023-06-19T02:37:50;18.60;99.90
3528;DHT22;1778;47.966;7.854;2023-06-19T02:38:51;18.60;99.90
3528;DHT22;1778;47.966;7.854;2023-06-19T02:39:55;18.60;99.90
3528;DHT22;1778;47.966;7.854;2023-06-19T02:40:58;18.50;99.90
3528;DHT22;1778;47.966;7.854;2023-06-19T02:42:02;18.50;99.90
3528;DHT22;1778;47.966;7.854;2023-06-19T02:43:04;18.50;99.90
3528;DHT22;1778;47.966;7.854;2023-06-19T02:44:05;18.50;99.90
3528;DHT22;1778;47.966;7.854;2023-06-19T02:45:07;18.40;99.90
3528;DHT22;1778;47.966;7.854;2023-06-19T02:46:09;18.40;99.90
3528;DHT22;1778;47.966;7.854;2023-06-19T02:47:15;18.50;99.90
3528;DHT22;1778;47.966;7.854;2023-06-19T02:48:16;18.50;99.90
3528;DHT22;1778;47.966;7.854;2023-06-19T02:49:18;18.50;99.90
3528;DHT22;1778;47.966;7.854;2023-06-19T02:50:19;18.50;99.90
3528;DHT22;1778;47.966;7.854;2023-06-19T02:51:21;18.40;99.90
3528;DHT22;1778;47.966;7.854;2023-06-19T02:52:22;18.40;99.90
3528;DHT22;1778;47.966;7.854;2023-06-19T02:53:24;18.40;99.90
3528;DHT22;1778;47.966;7.854;2023-06-19T02:54:25;18.40;99.90
3528;DHT22;1778;47.966;7.854;2023-06-19T02:55:27;18.40;99.90
3528;DHT22;1778;47.966;7.854;2023-06-19T02:56:30;18.40;99.90
3528;DHT22;1778;47.966;7.854;2023-06-19T02:57:32;18.40;99.90
3528;DHT22;1778;47.966;7.854;2023-06-19T02:58:33;18.40;99.90
3528;DHT22;1778;47.966;7.854;2023-06-19T02:59:36;18.40;99.90
3528;DHT22;1778;47.966;7.854;2023-06-19T03:00:37;18.40;99.90
3528;DHT22;1778;47.966;7.854;2023-06-19T03:01:39;18.50;99.90
3528;DHT22;1778;47.966;7.854;2023-06-19T03:02:41;18.50;99.90
3528;DHT22;1778;47.966;7.854;2023-06-19T03:03:45;18.50;99.90
3528;DHT22;1778;47.966;7.854;2023-06-19T03:04:47;18.40;99.90
3528;DHT22;1778;47.966;7.854;2023-06-19T03:05:49;18.50;99.90
3528;DHT22;1778;47.966;7.854;2023-06-19T03:06:50;18.40;99.90
3528;DHT22;1778;47.966;7.854;2023-06-19T03:07:52;18.40;99.90
3528;DHT22;1778;47.966;7.854;2023-06-19T03:08:54;18.40;99.90
3528;DHT22;1778;47.966;7.854;2023-06-19T03:09:55;18.40;99.90
3528;DHT22;1778;47.966;7.854;2023-06-19T03:10:57;18.40;99.90
3528;DHT22;1778;47.966;7.854;2023-06-19T03:11:59;18.40;99.90
3528;DHT22;1778;47.966;7.854;2023-06-19T03:13:00;18.40;99.90
3528;DHT22;1778;47.966;7.854;2023-06-19T03:14:02;18.50;99.90
3528;DHT22;1778;47.966;7.854;2023-06-19T03:15:08;18.40;99.90
3528;DHT22;1778;47.966;7.854;2023-06-19T03:16:14;18.40;99.90
3528;DHT22;1778;47.966;7.854;2023-06-19T03:17:16;18.40;99.90
3528;DHT22;1778;47.966;7.854;2023-06-19T03:18:18;18.50;99.90
3528;DHT22;1778;47.966;7.854;2023-06-19T03:19:19;18.40;99.90
3528;DHT22;1778;47.966;7.854;2023-06-19T03:20:22;18.50;99.90
3528;DHT22;1778;47.966;7.854;2023-06-19T03:21:29;18.40;99.90
3528;DHT22;1778;47.966;7.854;2023-06-19T03:22:31;18.40;99.90
3528;DHT22;1778;47.966;7.854;2023-06-19T03:23:33;18.40;99.90
3528;DHT22;1778;47.966;7.854;2023-06-19T03:24:35;18.50;99.90
3528;DHT22;1778;47.966;7.854;2023-06-19T03:25:48;18.50;99.90
3528;DHT22;1778;47.966;7.854;2023-06-19T03:26:50;18.40;99.90
3528;DHT22;1778;47.966;7.854;2023-06-19T03:27:52;18.40;99.90
3528;DHT22;1778;47.966;7.854;2023-06-19T03:28:53;18.40;99.90
3528;DHT22;1778;47.966;7.854;2023-06-19T03:29:57;18.40;99.90
3528;DHT22;1778;47.966;7.854;2023-06-19T03:31:08;18.40;99.90
3528;DHT22;1778;47.966;7.854;2023-06-19T03:32:10;18.40;99.90
3528;DHT22;1778;47.966;7.854;2023-06-19T03:33:12;18.40;99.90
3528;DHT22;1778;47.966;7.854;2023-06-19T03:34:16;18.40;99.90
3528;DHT22;1778;47.966;7.854;2023-06-19T03:35:18;18.40;99.90
3528;DHT22;1778;47.966;7.854;2023-06-19T03:36:19;18.40;99.90
3528;DHT22;1778;47.966;7.854;2023-06-19T03:37:23;18.50;99.90
3528;DHT22;1778;47.966;7.854;2023-06-19T03:38:25;18.50;99.90
3528;DHT22;1778;47.966;7.854;2023-06-19T03:39:28;18.50;99.90
3528;DHT22;1778;47.966;7.854;2023-06-19T03:40:36;18.50;99.90
3528;DHT22;1778;47.966;7.854;2023-06-19T03:41:43;18.60;99.90
3528;DHT22;1778;47.966;7.854;2023-06-19T03:42:45;18.60;99.90
3528;DHT22;1778;47.966;7.854;2023-06-19T03:43:47;18.50;99.90
3528;DHT22;1778;47.966;7.854;2023-06-19T03:44:49;18.50;99.90
3528;DHT22;1778;47.966;7.854;2023-06-19T03:45:51;18.50;99.90
3528;DHT22;1778;47.966;7.854;2023-06-19T03:46:52;18.50;99.90
3528;DHT22;1778;47.966;7.854;2023-06-19T03:47:54;18.50;99.90
3528;DHT22;1778;47.966;7.854;2023-06-19T03:48:56;18.50;99.90
3528;DHT22;1778;47.966;7.854;2023-06-19T03:49:57;18.50;99.90
3528;DHT22;1778;47.966;7.854;2023-06-19T03:51:19;18.50;99.90
3528;DHT22;1778;47.966;7.854;2023-06-19T03:52:20;18.50;99.90
3528;DHT22;1778;47.966;7.854;2023-06-19T03:53:24;18.50;99.90
3528;DHT22;1778;47.966;7.854;2023-06-19T03:54:27;18.50;99.90
3528;DHT22;1778;47.966;7.854;2023-06-19T03:55:29;18.50;99.90
3528;DHT22;1778;47.966;7.854;2023-06-19T03:56:30;18.50;99.90
3528;DHT22;1778;47.966;7.854;2023-06-19T03:57:32;18.50;99.90
3528;DHT22;1778;47.966;7.854;2023-06-19T03:58:34;18.50;99.90
3528;DHT22;1778;47.966;7.854;2023-06-19T03:59:36;18.50;99.90
3528;DHT22;1778;47.966;7.854;2023-06-19T04:00:37;18.50;99.90
3528;DHT22;1778;47.966;7.854;2023-06-19T04:01:39;18.50;99.90
3528;DHT22;1778;47.966;7.854;2023-06-19T04:02:43;18.50;99.90
3528;DHT22;1778;47.966;7.854;2023-06-19T04:03:49;18.50;99.90
3528;DHT22;1778;47.966;7.854;2023-06-19T04:04:51;18.50;99.90
3528;DHT22;1778;47.966;7.854;2023-06-19T04:05:52;18.50;99.90
3528;DHT22;1778;47.966;7.854;2023-06-19T04:06:54;18.50;99.90
3528;DHT22;1778;47.966;7.854;2023-06-19T04:07:56;18.50;99.90
3528;DHT22;1778;47.966;7.854;2023-06-19T04:08:57;18.50;99.90
3528;DHT22;1778;47.966;7.854;2023-06-19T04:09:59;18.50;99.90
3528;DHT22;1778;47.966;7.854;2023-06-19T04:11:01;18.50;99.90
3528;DHT22;1778;47.966;7.854;2023-06-19T04:12:03;18.50;99.90
3528;DHT22;1778;47.966;7.854;2023-06-19T04:13:04;18.50;99.90
3528;DHT22;1778;47.966;7.854;2023-06-19T04:14:08;18.50;99.90
3528;DHT22;1778;47.966;7.854;2023-06-19T04:15:10;18.50;99.90
3528;DHT22;1778;47.966;7.854;2023-06-19T04:16:12;18.50;99.90
3528;DHT22;1778;47.966;7.854;2023-06-19T04:17:14;18.60;99.90
3528;DHT22;1778;47.966;7.854;2023-06-19T04:18:16;18.70;99.90
3528;DHT22;1778;47.966;7.854;2023-06-19T04:19:18;18.70;99.90
3528;DHT22;1778;47.966;7.854;2023-06-19T04:20:20;18.60;99.90
3528;DHT22;1778;47.966;7.854;2023-06-19T04:21:22;18.70;99.90
3528;DHT22;1778;47.966;7.854;2023-06-19T04:22:24;18.70;99.90
3528;DHT22;1778;47.966;7.854;2023-06-19T04:23:26;18.60;99.90
3528;DHT22;1778;47.966;7.854;2023-06-19T04:24:27;18.60;99.90
3528;DHT22;1778;47.966;7.854;2023-06-19T04:25:30;18.60;99.90
3528;DHT22;1778;47.966;7.854;2023-06-19T04:26:31;18.70;99.90
3528;DHT22;1778;47.966;7.854;2023-06-19T04:27:34;18.70;99.90
3528;DHT22;1778;47.966;7.854;2023-06-19T04:28:36;18.70;99.90
3528;DHT22;1778;47.966;7.854;2023-06-19T04:29:37;18.70;99.90
3528;DHT22;1778;47.966;7.854;2023-06-19T04:30:39;18.70;99.90
3528;DHT22;1778;47.966;7.854;2023-06-19T04:31:41;18.70;99.90
3528;DHT22;1778;47.966;7.854;2023-06-19T04:32:43;18.70;99.90
3528;DHT22;1778;47.966;7.854;2023-06-19T04:33:45;18.70;99.90
3528;DHT22;1778;47.966;7.854;2023-06-19T04:34:47;18.70;99.90
3528;DHT22;1778;47.966;7.854;2023-06-19T04:35:49;18.70;99.90
3528;DHT22;1778;47.966;7.854;2023-06-19T04:36:51;18.80;99.90
3528;DHT22;1778;47.966;7.854;2023-06-19T04:37:53;18.70;99.90
3528;DHT22;1778;47.966;7.854;2023-06-19T04:38:56;18.80;99.90
3528;DHT22;1778;47.966;7.854;2023-06-19T04:39:57;18.80;99.90
3528;DHT22;1778;47.966;7.854;2023-06-19T04:40:59;18.80;99.90
3528;DHT22;1778;47.966;7.854;2023-06-19T04:42:01;18.90;99.90
3528;DHT22;1778;47.966;7.854;2023-06-19T04:43:02;18.90;99.90
3528;DHT22;1778;47.966;7.854;2023-06-19T04:44:07;19.00;99.90
3528;DHT22;1778;47.966;7.854;2023-06-19T04:45:09;19.00;99.90
3528;DHT22;1778;47.966;7.854;2023-06-19T04:46:11;19.10;99.90
3528;DHT22;1778;47.966;7.854;2023-06-19T04:47:14;19.20;99.90
3528;DHT22;1778;47.966;7.854;2023-06-19T04:48:17;19.30;99.90
3528;DHT22;1778;47.966;7.854;2023-06-19T04:49:18;19.30;99.90
3528;DHT22;1778;47.966;7.854;2023-06-19T04:50:24;19.30;99.90
3528;DHT22;1778;47.966;7.854;2023-06-19T04:51:26;19.30;99.90
3528;DHT22;1778;47.966;7.854;2023-06-19T04:52:27;19.30;99.90
3528;DHT22;1778;47.966;7.854;2023-06-19T04:53:29;19.40;99.90
3528;DHT22;1778;47.966;7.854;2023-06-19T04:54:30;19.50;99.90
3528;DHT22;1778;47.966;7.854;2023-06-19T04:55:34;19.50;99.90
3528;DHT22;1778;47.966;7.854;2023-06-19T04:56:36;19.50;99.90
3528;DHT22;1778;47.966;7.854;2023-06-19T04:57:37;19.60;99.90
3528;DHT22;1778;47.966;7.854;2023-06-19T04:58:39;19.60;99.90
3528;DHT22;1778;47.966;7.854;2023-06-19T04:59:47;19.60;99.90
3528;DHT22;1778;47.966;7.854;2023-06-19T05:00:48;19.70;99.90
3528;DHT22;1778;47.966;7.854;2023-06-19T05:01:52;19.70;99.90
3528;DHT22;1778;47.966;7.854;2023-06-19T05:02:55;19.70;99.90
3528;DHT22;1778;47.966;7.854;2023-06-19T05:04:01;19.80;99.90
3528;DHT22;1778;47.966;7.854;2023-06-19T05:05:02;19.80;99.90
3528;DHT22;1778;47.966;7.854;2023-06-19T05:06:06;19.80;99.90
3528;DHT22;1778;47.966;7.854;2023-06-19T05:07:07;19.80;99.90
3528;DHT22;1778;47.966;7.854;2023-06-19T05:08:08;19.80;99.90
3528;DHT22;1778;47.966;7.854;2023-06-19T05:09:10;19.80;99.90
3528;DHT22;1778;47.966;7.854;2023-06-19T05:10:12;19.70;99.90
3528;DHT22;1778;47.966;7.854;2023-06-19T05:11:13;19.60;99.90
3528;DHT22;1778;47.966;7.854;2023-06-19T05:12:15;19.60;99.90
3528;DHT22;1778;47.966;7.854;2023-06-19T05:13:16;19.60;99.90
3528;DHT22;1778;47.966;7.854;2023-06-19T05:14:20;19.60;99.90
3528;DHT22;1778;47.966;7.854;2023-06-19T05:15:21;19.70;99.90
3528;DHT22;1778;47.966;7.854;2023-06-19T05:16:23;19.70;99.90
3528;DHT22;1778;47.966;7.854;2023-06-19T05:17:26;19.70;99.90
3528;DHT22;1778;47.966;7.854;2023-06-19T05:18:28;19.80;99.90
3528;DHT22;1778;47.966;7.854;2023-06-19T05:19:29;19.80;99.90
3528;DHT22;1778;47.966;7.854;2023-06-19T05:20:31;19.80;99.90
3528;DHT22;1778;47.966;7.854;2023-06-19T05:21:32;19.70;99.90
3528;DHT22;1778;47.966;7.854;2023-06-19T05:22:34;19.80;99.90
3528;DHT22;1778;47.966;7.854;2023-06-19T05:23:35;19.90;99.90
3528;DHT22;1778;47.966;7.854;2023-06-19T05:24:37;19.90;99.90
3528;DHT22;1778;47.966;7.854;2023-06-19T05:25:38;19.90;99.90
3528;DHT22;1778;47.966;7.854;2023-06-19T05:26:40;19.90;99.90
3528;DHT22;1778;47.966;7.854;2023-06-19T05:27:42;19.90;99.90
3528;DHT22;1778;47.966;7.854;2023-06-19T05:28:43;19.90;99.90
3528;DHT22;1778;47.966;7.854;2023-06-19T05:29:46;20.00;99.90
3528;DHT22;1778;47.966;7.854;2023-06-19T05:30:47;20.00;99.90
3528;DHT22;1778;47.966;7.854;2023-06-19T05:31:49;20.00;99.90
3528;DHT22;1778;47.966;7.854;2023-06-19T05:32:51;20.10;99.90
3528;DHT22;1778;47.966;7.854;2023-06-19T05:33:53;20.00;99.90
3528;DHT22;1778;47.966;7.854;2023-06-19T05:34:54;20.00;99.90
3528;DHT22;1778;47.966;7.854;2023-06-19T05:35:56;20.00;99.90
3528;DHT22;1778;47.966;7.854;2023-06-19T05:36:58;20.00;99.90
3528;DHT22;1778;47.966;7.854;2023-06-19T05:38:02;20.10;99.90
3528;DHT22;1778;47.966;7.854;2023-06-19T05:39:04;20.10;99.90
3528;DHT22;1778;47.966;7.854;2023-06-19T05:40:06;20.10;99.90
3528;DHT22;1778;47.966;7.854;2023-06-19T05:41:08;20.10;99.90
3528;DHT22;1778;47.966;7.854;2023-06-19T05:42:09;20.20;99.90
3528;DHT22;1778;47.966;7.854;2023-06-19T05:43:11;20.20;99.90
3528;DHT22;1778;47.966;7.854;2023-06-19T05:44:12;20.20;99.90
3528;DHT22;1778;47.966;7.854;2023-06-19T05:45:18;20.30;99.90
3528;DHT22;1778;47.966;7.854;2023-06-19T05:46:20;20.30;99.90
3528;DHT22;1778;47.966;7.854;2023-06-19T05:47:21;20.40;99.90
3528;DHT22;1778;47.966;7.854;2023-06-19T05:48:27;20.40;99.90
3528;DHT22;1778;47.966;7.854;2023-06-19T05:49:28;20.50;99.90
3528;DHT22;1778;47.966;7.854;2023-06-19T05:50:30;20.50;99.90
3528;DHT22;1778;47.966;7.854;2023-06-19T05:51:32;20.60;99.90
3528;DHT22;1778;47.966;7.854;2023-06-19T05:52:34;20.60;99.90
3528;DHT22;1778;47.966;7.854;2023-06-19T05:53:35;20.60;99.90
3528;DHT22;1778;47.966;7.854;2023-06-19T05:54:37;20.70;99.90
3528;DHT22;1778;47.966;7.854;2023-06-19T05:55:39;20.70;99.90
3528;DHT22;1778;47.966;7.854;2023-06-19T05:56:41;20.70;99.90
3528;DHT22;1778;47.966;7.854;2023-06-19T05:57:42;20.70;99.90
3528;DHT22;1778;47.966;7.854;2023-06-19T05:58:44;20.70;99.90
3528;DHT22;1778;47.966;7.854;2023-06-19T05:59:46;20.70;99.90
3528;DHT22;1778;47.966;7.854;2023-06-19T06:00:48;20.80;99.90
3528;DHT22;1778;47.966;7.854;2023-06-19T06:01:49;20.80;99.90
3528;DHT22;1778;47.966;7.854;2023-06-19T06:02:54;20.70;99.90
3528;DHT22;1778;47.966;7.854;2023-06-19T06:03:57;20.80;99.90
3528;DHT22;1778;47.966;7.854;2023-06-19T06:04:58;20.70;99.90
3528;DHT22;1778;47.966;7.854;2023-06-19T06:06:00;20.70;99.90
3528;DHT22;1778;47.966;7.854;2023-06-19T06:07:05;20.80;99.90
3528;DHT22;1778;47.966;7.854;2023-06-19T06:08:06;20.80;99.90
3528;DHT22;1778;47.966;7.854;2023-06-19T06:09:08;20.90;99.90
3528;DHT22;1778;47.966;7.854;2023-06-19T06:10:13;20.90;99.90
3528;DHT22;1778;47.966;7.854;2023-06-19T06:11:15;20.80;99.90
3528;DHT22;1778;47.966;7.854;2023-06-19T06:12:17;20.90;99.90
3528;DHT22;1778;47.966;7.854;2023-06-19T06:13:19;20.90;99.90
3528;DHT22;1778;47.966;7.854;2023-06-19T06:14:20;20.90;99.90
3528;DHT22;1778;47.966;7.854;2023-06-19T06:15:22;20.90;99.90
3528;DHT22;1778;47.966;7.854;2023-06-19T06:16:23;21.00;99.90
3528;DHT22;1778;47.966;7.854;2023-06-19T06:17:25;21.00;99.90
3528;DHT22;1778;47.966;7.854;2023-06-19T06:18:27;21.00;99.90
3528;DHT22;1778;47.966;7.854;2023-06-19T06:19:29;21.00;99.90
3528;DHT22;1778;47.966;7.854;2023-06-19T06:20:33;21.00;99.90
3528;DHT22;1778;47.966;7.854;2023-06-19T06:21:34;21.00;99.90
3528;DHT22;1778;47.966;7.854;2023-06-19T06:22:36;21.10;99.90
3528;DHT22;1778;47.966;7.854;2023-06-19T06:23:40;21.20;99.90
3528;DHT22;1778;47.966;7.854;2023-06-19T06:24:42;21.10;99.90
3528;DHT22;1778;47.966;7.854;2023-06-19T06:25:43;21.10;99.90
3528;DHT22;1778;47.966;7.854;2023-06-19T06:26:47;21.10;99.90
3528;DHT22;1778;47.966;7.854;2023-06-19T06:27:48;21.10;99.90
3528;DHT22;1778;47.966;7.854;2023-06-19T06:28:49;21.10;99.90
3528;DHT22;1778;47.966;7.854;2023-06-19T06:29:51;21.10;99.90
3528;DHT22;1778;47.966;7.854;2023-06-19T06:30:52;21.10;99.90
3528;DHT22;1778;47.966;7.854;2023-06-19T06:32:06;21.10;99.90
3528;DHT22;1778;47.966;7.854;2023-06-19T06:33:08;21.10;99.90
3528;DHT22;1778;47.966;7.854;2023-06-19T06:34:10;21.10;99.90
3528;DHT22;1778;47.966;7.854;2023-06-19T06:35:11;21.20;99.90
3528;DHT22;1778;47.966;7.854;2023-06-19T06:36:15;21.20;99.90
3528;DHT22;1778;47.966;7.854;2023-06-19T06:37:35;21.30;99.90
3528;DHT22;1778;47.966;7.854;2023-06-19T06:38:37;21.40;99.90
3528;DHT22;1778;47.966;7.854;2023-06-19T06:39:39;21.50;99.90
3528;DHT22;1778;47.966;7.854;2023-06-19T06:40:40;21.60;99.90
3528;DHT22;1778;47.966;7.854;2023-06-19T06:41:44;21.70;99.90
3528;DHT22;1778;47.966;7.854;2023-06-19T06:42:46;21.80;99.90
3528;DHT22;1778;47.966;7.854;2023-06-19T06:43:48;21.90;99.90
3528;DHT22;1778;47.966;7.854;2023-06-19T06:44:50;21.90;99.90
3528;DHT22;1778;47.966;7.854;2023-06-19T06:45:51;22.00;99.90
3528;DHT22;1778;47.966;7.854;2023-06-19T06:46:53;22.10;99.90
3528;DHT22;1778;47.966;7.854;2023-06-19T06:47:56;22.20;99.90
3528;DHT22;1778;47.966;7.854;2023-06-19T06:49:00;22.20;99.90
3528;DHT22;1778;47.966;7.854;2023-06-19T06:50:10;22.30;99.90
3528;DHT22;1778;47.966;7.854;2023-06-19T06:51:12;22.40;99.90